Warson Woods, Missouri
Current Conditions -  °F | °C
As of 10:09 AM on Sunday 23 Nov 2014 (Local Time) from KSTL Reporting Station
Light Rain Light Rain  
Wind Chill: 55°   Ceiling: 4000
Heat Index: 55°   Visibility: 4mi
Dew Point: 52°   Wind: 16mph
Humidity: 88%   Direction: 150°SSE
Pressure: 29.64"   Gusts: 22mph
Location:  38.5796°N, 90.4197°W
Report Text: KSTL 231609Z 15014G19KT 4SM -RA BR SCT012 BKN040 OVC070 13/11 A2964 RMK AO2 P0002
Loading
Personal Weather Stations






























Interactive Weather Map New forecast layout! Learn more

10-Day Weather Forecast

Advertisements
Track Severe Weather on mobile